createdAt,value
2017-05-11T00:00:06.667Z,16.45
2017-05-11T00:02:34.981Z,15.77
2017-05-11T00:05:03.284Z,16.32
2017-05-11T00:07:31.589Z,16.02
2017-05-11T00:09:59.894Z,15.33
2017-05-11T00:12:28.649Z,14.98
2017-05-11T00:14:56.964Z,15.97
2017-05-11T00:17:25.273Z,15.38
2017-05-11T00:19:53.582Z,15.45
2017-05-11T00:22:21.930Z,16.35
2017-05-11T00:24:50.277Z,16.25
2017-05-11T00:27:18.710Z,16.18
2017-05-11T00:29:47.760Z,16.60
2017-05-11T00:32:16.067Z,14.98
2017-05-11T00:34:44.377Z,15.97
2017-05-11T00:37:12.688Z,16.40
2017-05-11T00:39:41.045Z,14.82
2017-05-11T00:42:09.352Z,15.12
2017-05-11T00:44:38.298Z,14.12
2017-05-11T00:47:06.607Z,14.52
2017-05-11T00:49:34.918Z,12.92
2017-05-11T00:52:03.234Z,13.85
2017-05-11T00:54:32.436Z,14.38
2017-05-11T00:57:00.743Z,14.50
2017-05-11T00:59:29.798Z,14.45
2017-05-11T01:01:58.101Z,14.82
2017-05-11T01:04:26.431Z,14.25
2017-05-11T01:06:54.737Z,13.77
2017-05-11T01:09:23.050Z,14.55
2017-05-11T01:11:52.106Z,13.80
2017-05-11T01:14:20.753Z,13.60
2017-05-11T01:16:49.103Z,14.35
2017-05-11T01:19:17.415Z,14.88
2017-05-11T01:21:45.881Z,14.28
2017-05-11T01:24:14.925Z,13.92
2017-05-11T01:26:43.230Z,13.80
2017-05-11T01:29:11.534Z,13.98
2017-05-11T01:31:40.477Z,13.93
2017-05-11T01:34:08.820Z,12.60
2017-05-11T01:36:37.126Z,12.65
2017-05-11T01:39:05.437Z,12.02
2017-05-11T01:41:33.737Z,11.75
2017-05-11T01:44:02.038Z,12.38
2017-05-11T01:46:30.350Z,12.10
2017-05-11T01:48:59.289Z,11.38
2017-05-11T01:51:27.598Z,11.92
2017-05-11T01:53:56.641Z,11.52
2017-05-11T01:56:24.947Z,12.00
2017-05-11T01:58:53.249Z,12.45
2017-05-11T02:01:21.559Z,10.82
2017-05-11T02:03:49.869Z,11.95
2017-05-11T02:06:18.781Z,12.42
2017-05-11T02:08:47.095Z,12.05
2017-05-11T02:11:15.458Z,11.30
2017-05-11T02:13:44.025Z,10.72
2017-05-11T02:16:13.121Z,11.28
2017-05-11T02:18:44.256Z,10.52
2017-05-11T02:21:12.617Z,11.52
2017-05-11T02:23:40.981Z,11.52
2017-05-11T02:26:09.341Z,11.43
2017-05-11T02:28:37.701Z,10.82
2017-05-11T02:31:06.826Z,11.22
2017-05-11T02:33:35.192Z,10.97
2017-05-11T02:36:03.563Z,10.95
2017-05-11T02:38:31.929Z,10.80
2017-05-11T02:41:00.287Z,11.80
2017-05-11T02:43:28.644Z,10.30
2017-05-11T02:45:57.001Z,11.35
2017-05-11T02:48:26.111Z,10.72
2017-05-11T02:50:54.468Z,11.37
2017-05-11T02:53:23.226Z,9.47
2017-05-11T02:55:52.328Z,10.42
2017-05-11T02:58:20.683Z,10.05
2017-05-11T03:00:49.041Z,10.37
2017-05-11T03:03:18.146Z,10.05
2017-05-11T03:05:46.504Z,9.93
2017-05-11T03:08:14.862Z,10.25
2017-05-11T03:10:44.064Z,10.03
2017-05-11T03:13:12.640Z,9.57
2017-05-11T03:15:40.993Z,9.87
2017-05-11T03:18:09.352Z,9.65
2017-05-11T03:20:37.703Z,8.48
2017-05-11T03:23:06.057Z,9.77
2017-05-11T03:25:34.414Z,8.98
2017-05-11T03:28:02.769Z,11.02
2017-05-11T03:30:31.868Z,10.15
2017-05-11T03:33:00.229Z,10.03
2017-05-11T03:35:28.630Z,10.78
2017-05-11T03:37:56.989Z,11.18
2017-05-11T03:40:26.524Z,11.13
2017-05-11T03:42:56.121Z,11.37
2017-05-11T03:45:24.487Z,10.57
2017-05-11T03:47:52.845Z,10.45
2017-05-11T03:50:22.176Z,10.32
2017-05-11T03:52:50.536Z,9.45
2017-05-11T03:55:19.201Z,8.02
2017-05-11T03:57:47.557Z,7.80
2017-05-11T04:00:15.922Z,7.50
2017-05-11T04:02:44.271Z,7.00
2017-05-11T04:05:13.361Z,6.83
2017-05-11T04:07:41.757Z,7.82
2017-05-11T04:10:10.114Z,7.10
2017-05-11T04:12:38.469Z,6.95
2017-05-11T04:15:07.894Z,6.97
2017-05-11T04:17:36.261Z,9.52
2017-05-11T04:20:04.617Z,7.58
2017-05-11T04:22:33.753Z,8.68
2017-05-11T04:25:02.105Z,6.92
2017-05-11T04:27:30.501Z,6.47
2017-05-11T04:29:58.892Z,7.40
2017-05-11T04:32:27.284Z,6.32
2017-05-11T04:34:55.641Z,6.25
2017-05-11T04:37:23.996Z,8.10
2017-05-11T04:39:52.457Z,7.55
2017-05-11T04:42:20.812Z,8.00
2017-05-11T04:44:49.913Z,7.72
2017-05-11T04:47:18.279Z,7.55
2017-05-11T04:49:46.645Z,7.30
2017-05-11T04:52:15.008Z,6.88
2017-05-11T04:54:43.368Z,7.24
2017-05-11T04:57:11.724Z,6.42
2017-05-11T04:59:40.825Z,6.48
2017-05-11T05:02:09.188Z,6.60
2017-05-11T05:04:37.545Z,6.22
2017-05-11T05:07:05.901Z,6.56
2017-05-11T05:09:34.294Z,6.10
2017-05-11T05:12:02.649Z,5.76
2017-05-11T05:14:31.587Z,5.62
2017-05-11T05:17:00.125Z,5.48
2017-05-11T05:19:28.481Z,6.04
2017-05-11T05:21:56.880Z,5.82
2017-05-11T05:24:25.233Z,5.82
2017-05-11T05:26:53.585Z,5.70
2017-05-11T05:29:21.937Z,5.70
2017-05-11T05:31:50.297Z,5.78
2017-05-11T05:34:18.648Z,6.06
2017-05-11T05:36:47.003Z,5.78
2017-05-11T05:39:15.355Z,5.52
2017-05-11T05:41:44.448Z,5.12
2017-05-11T05:44:12.795Z,5.54
2017-05-11T05:46:41.145Z,5.74
2017-05-11T05:49:10.312Z,4.40
2017-05-11T05:51:38.665Z,4.84
2017-05-11T05:54:07.023Z,5.16
2017-05-11T05:56:35.371Z,5.64
2017-05-11T05:59:03.721Z,5.22
2017-05-11T06:01:32.077Z,5.82
2017-05-11T06:04:01.173Z,5.90
2017-05-11T06:06:29.530Z,4.86
2017-05-11T06:08:57.885Z,5.16
2017-05-11T06:11:26.241Z,5.90
2017-05-11T06:13:54.593Z,4.70
2017-05-11T06:16:27.575Z,5.06
2017-05-11T06:18:55.925Z,5.32
2017-05-11T06:21:25.708Z,4.80
2017-05-11T06:23:54.066Z,5.70
2017-05-11T06:26:22.425Z,5.60
2017-05-11T06:28:51.525Z,5.30
2017-05-11T06:31:19.885Z,5.46
2017-05-11T06:33:48.878Z,5.38
2017-05-11T06:36:17.240Z,4.84
2017-05-11T06:38:45.597Z,4.88
2017-05-11T06:41:13.948Z,4.42
2017-05-11T06:43:43.045Z,4.96
2017-05-11T06:46:11.401Z,4.74
2017-05-11T06:48:39.769Z,4.90
2017-05-11T06:51:08.877Z,4.77
2017-05-11T06:53:39.036Z,4.65
2017-05-11T06:56:07.405Z,4.20
2017-05-11T06:58:35.769Z,4.28
2017-05-11T07:01:04.138Z,3.93
2017-05-11T07:03:32.501Z,4.20
2017-05-11T07:06:00.867Z,4.07
2017-05-11T07:08:29.233Z,3.70
2017-05-11T07:10:57.597Z,3.63
2017-05-11T07:13:25.968Z,4.22
2017-05-11T07:15:54.377Z,3.95
2017-05-11T07:18:22.740Z,3.53
2017-05-11T07:20:51.097Z,3.75
2017-05-11T07:23:19.457Z,3.93
2017-05-11T07:25:47.819Z,3.85
2017-05-11T07:28:16.920Z,3.17
2017-05-11T07:30:45.276Z,3.57
2017-05-11T07:33:13.628Z,3.30
2017-05-11T07:35:43.121Z,3.17
2017-05-11T07:38:11.515Z,3.92
2017-05-11T07:40:39.877Z,3.38
2017-05-11T07:43:13.340Z,3.47
2017-05-11T07:45:41.696Z,3.65
2017-05-11T07:48:10.054Z,3.10
2017-05-11T07:50:38.410Z,3.02
2017-05-11T07:53:06.766Z,3.78
2017-05-11T07:55:36.017Z,3.20
2017-05-11T07:58:04.368Z,3.08
2017-05-11T08:00:32.996Z,3.37
2017-05-11T08:03:02.091Z,3.32
2017-05-11T08:05:30.452Z,3.83
2017-05-11T08:07:58.810Z,3.27
2017-05-11T08:10:27.908Z,3.32
2017-05-11T08:12:56.266Z,3.22
2017-05-11T08:15:24.697Z,3.16
2017-05-11T08:17:53.057Z,3.40
2017-05-11T08:20:21.418Z,3.63
2017-05-11T08:22:50.576Z,3.77
2017-05-11T08:25:18.929Z,3.02
2017-05-11T08:27:48.029Z,3.52
2017-05-11T08:30:16.390Z,3.32
2017-05-11T08:32:44.744Z,3.50
2017-05-11T08:35:13.990Z,3.17
2017-05-11T08:37:42.349Z,4.00
2017-05-11T08:40:10.712Z,3.20
2017-05-11T08:42:39.069Z,3.33
2017-05-11T08:45:08.165Z,3.63
2017-05-11T08:47:36.521Z,3.55
2017-05-11T08:50:04.880Z,3.32
2017-05-11T08:52:33.981Z,3.45
2017-05-11T08:55:02.344Z,3.67
2017-05-11T08:57:30.700Z,3.47
2017-05-11T08:59:59.900Z,3.57
2017-05-11T09:02:28.257Z,3.37
2017-05-11T09:04:57.316Z,3.38
2017-05-11T09:07:25.675Z,3.35
2017-05-11T09:09:54.029Z,3.38
2017-05-11T09:12:23.121Z,3.82
2017-05-11T09:14:51.473Z,3.40
2017-05-11T09:17:20.261Z,3.32
2017-05-11T09:19:49.354Z,3.12
2017-05-11T09:22:17.709Z,4.23
2017-05-11T09:24:46.062Z,3.80
2017-05-11T09:27:15.161Z,3.18
2017-05-11T09:29:43.513Z,3.77
2017-05-11T09:32:11.869Z,3.95
2017-05-11T09:34:40.264Z,3.88
2017-05-11T09:37:08.808Z,4.12
2017-05-11T09:39:37.520Z,3.58
2017-05-11T09:42:05.877Z,3.83
2017-05-11T09:44:34.230Z,3.75
2017-05-11T09:47:02.584Z,3.70
2017-05-11T09:49:31.676Z,3.93
2017-05-11T09:52:00.181Z,4.25
2017-05-11T09:54:28.544Z,4.13
2017-05-11T09:56:56.901Z,3.98
2017-05-11T09:59:26.001Z,3.83
2017-05-11T10:01:54.356Z,3.62
2017-05-11T10:04:23.037Z,3.60
2017-05-11T10:06:51.401Z,3.37
2017-05-11T10:09:20.425Z,3.83
2017-05-11T10:11:48.783Z,3.47
2017-05-11T10:14:17.145Z,3.82
2017-05-11T10:16:46.249Z,2.83
2017-05-11T10:19:15.746Z,3.43
2017-05-11T10:21:48.340Z,2.68
2017-05-11T10:24:16.715Z,2.73
2017-05-11T10:26:45.075Z,2.75
2017-05-11T10:29:14.178Z,2.60
2017-05-11T10:31:43.276Z,2.82
2017-05-11T10:34:11.636Z,3.47
2017-05-11T10:36:39.993Z,3.35
2017-05-11T10:39:09.449Z,3.25
2017-05-11T10:41:37.812Z,2.92
2017-05-11T10:44:06.917Z,2.52
2017-05-11T10:46:35.284Z,2.92
2017-05-11T10:49:03.647Z,3.12
2017-05-11T10:51:32.081Z,3.00
2017-05-11T10:54:00.451Z,3.10
2017-05-11T10:56:28.816Z,2.62
2017-05-11T10:58:57.183Z,3.12
2017-05-11T11:01:25.549Z,2.88
2017-05-11T11:03:53.947Z,2.98
2017-05-11T11:06:22.314Z,3.15
2017-05-11T11:08:52.285Z,2.98
2017-05-11T11:11:21.380Z,3.00
2017-05-11T11:13:50.519Z,2.87
2017-05-11T11:16:19.609Z,2.92
2017-05-11T11:18:47.970Z,2.82
2017-05-11T11:21:16.583Z,2.75
2017-05-11T11:23:45.349Z,2.40
2017-05-11T11:26:13.713Z,2.38
2017-05-11T11:28:42.073Z,2.62
2017-05-11T11:31:10.437Z,2.35
2017-05-11T11:33:38.808Z,2.32
2017-05-11T11:36:07.212Z,2.20
2017-05-11T11:38:35.581Z,2.05
2017-05-11T11:41:03.985Z,2.20
2017-05-11T11:43:32.367Z,2.18
2017-05-11T11:46:01.049Z,2.32
2017-05-11T11:48:29.412Z,2.10
2017-05-11T11:50:57.820Z,2.10
2017-05-11T11:53:26.221Z,2.08
2017-05-11T11:55:54.578Z,2.14
2017-05-11T11:58:22.945Z,2.20
2017-05-11T12:00:51.796Z,2.17
2017-05-11T12:03:20.198Z,1.98
2017-05-11T12:05:48.553Z,2.00
2017-05-11T12:08:17.656Z,1.88
2017-05-11T12:10:46.761Z,2.00
2017-05-11T12:13:15.127Z,2.32
2017-05-11T12:15:43.497Z,2.45
2017-05-11T12:18:12.400Z,2.00
2017-05-11T12:20:40.766Z,2.40
2017-05-11T12:23:09.128Z,2.20
2017-05-11T12:25:37.488Z,1.92
2017-05-11T12:28:05.841Z,2.08
2017-05-11T12:30:34.240Z,2.42
2017-05-11T12:33:02.600Z,2.00
2017-05-11T12:35:30.961Z,1.84
2017-05-11T12:37:59.321Z,2.36
2017-05-11T12:40:28.109Z,2.34
2017-05-11T12:42:56.469Z,1.88
2017-05-11T12:45:24.832Z,2.22
2017-05-11T12:47:53.196Z,2.06
2017-05-11T12:50:22.299Z,2.20
2017-05-11T12:52:50.689Z,2.42
2017-05-11T12:55:19.045Z,2.10
2017-05-11T12:57:47.593Z,2.00
2017-05-11T13:00:15.956Z,2.02
2017-05-11T13:02:44.321Z,2.10
2017-05-11T13:05:13.417Z,2.10
2017-05-11T13:07:41.770Z,2.42
2017-05-11T13:10:10.133Z,2.20
2017-05-11T13:12:39.232Z,2.30
2017-05-11T13:15:07.585Z,2.60
2017-05-11T13:17:35.942Z,2.16
2017-05-11T13:20:06.353Z,2.52
2017-05-11T13:22:35.197Z,2.20
2017-05-11T13:25:04.292Z,2.20
2017-05-11T13:27:32.649Z,2.16
2017-05-11T13:30:01.004Z,2.28
2017-05-11T13:32:29.357Z,2.46
2017-05-11T13:34:57.748Z,2.48
2017-05-11T13:37:26.100Z,2.56
2017-05-11T13:39:54.558Z,2.08
2017-05-11T13:42:22.917Z,2.14
2017-05-11T13:44:52.013Z,2.40
2017-05-11T13:47:20.374Z,2.26
2017-05-11T13:49:49.041Z,2.60
2017-05-11T13:52:18.137Z,2.72
2017-05-11T13:54:47.080Z,2.32
2017-05-11T13:57:15.433Z,2.28
2017-05-11T13:59:43.788Z,2.10
2017-05-11T14:02:12.149Z,2.36
2017-05-11T14:04:41.249Z,2.30
2017-05-11T14:07:09.601Z,2.30
2017-05-11T14:09:37.956Z,2.70
2017-05-11T14:12:06.319Z,2.52
2017-05-11T14:14:35.670Z,2.50
2017-05-11T14:17:04.945Z,2.26
2017-05-11T14:19:33.305Z,2.36
2017-05-11T14:22:03.212Z,2.44
2017-05-11T14:24:31.568Z,2.28
2017-05-11T14:26:59.929Z,2.12
2017-05-11T14:29:28.287Z,2.18
2017-05-11T14:31:56.645Z,2.14
2017-05-11T14:34:25.741Z,2.44
2017-05-11T14:36:54.097Z,2.00
2017-05-11T14:39:22.457Z,2.04
2017-05-11T14:41:51.561Z,1.80
2017-05-11T14:44:19.916Z,2.30
2017-05-11T14:46:48.265Z,2.10
2017-05-11T14:49:17.365Z,2.12
2017-05-11T14:51:45.720Z,2.02
2017-05-11T14:54:14.076Z,2.16
2017-05-11T14:56:42.432Z,2.12
2017-05-11T14:59:10.998Z,2.12
2017-05-11T15:01:40.092Z,2.74
2017-05-11T15:04:08.440Z,1.90
2017-05-11T15:06:36.792Z,2.12
2017-05-11T15:09:05.146Z,2.14
2017-05-11T15:11:33.496Z,2.18
2017-05-11T15:14:02.935Z,2.24
2017-05-11T15:16:31.300Z,2.20
2017-05-11T15:18:59.653Z,2.44
2017-05-11T15:21:28.009Z,2.28
2017-05-11T15:23:56.485Z,2.24
2017-05-11T15:26:24.845Z,2.52
2017-05-11T15:28:53.200Z,2.26
2017-05-11T15:31:21.556Z,2.40
2017-05-11T15:33:49.909Z,2.40
2017-05-11T15:36:18.266Z,2.28
2017-05-11T15:38:46.621Z,2.50
2017-05-11T15:41:15.717Z,2.66
2017-05-11T15:43:44.078Z,2.54
2017-05-11T15:46:12.440Z,2.70
2017-05-11T15:48:41.533Z,2.22
2017-05-11T15:51:09.884Z,2.50
2017-05-11T15:53:38.241Z,2.52
2017-05-11T15:56:11.574Z,2.26
2017-05-11T15:58:39.933Z,2.60
2017-05-11T16:01:08.292Z,2.56
2017-05-11T16:03:36.649Z,2.70
2017-05-11T16:06:05.013Z,2.84
2017-05-11T16:08:33.377Z,2.66
2017-05-11T16:11:01.733Z,2.52
2017-05-11T16:13:30.089Z,3.12
2017-05-11T16:15:58.443Z,2.48
2017-05-11T16:18:26.804Z,2.52
2017-05-11T16:20:55.428Z,2.74
2017-05-11T16:23:23.793Z,3.00
2017-05-11T16:25:52.149Z,2.50
2017-05-11T16:28:21.252Z,2.74
2017-05-11T16:30:49.608Z,2.82
2017-05-11T16:33:18.184Z,2.84
2017-05-11T16:35:47.286Z,3.02
2017-05-11T16:38:16.385Z,3.08
2017-05-11T16:40:44.741Z,2.86
2017-05-11T16:43:13.096Z,2.78
2017-05-11T16:45:41.449Z,2.86
2017-05-11T16:48:09.809Z,3.22
2017-05-11T16:50:39.649Z,2.82
2017-05-11T16:53:08.744Z,3.34
2017-05-11T16:55:37.105Z,2.88
2017-05-11T16:58:05.464Z,2.74
2017-05-11T17:00:33.826Z,2.94
2017-05-11T17:03:02.225Z,3.00
2017-05-11T17:05:31.350Z,3.12
2017-05-11T17:08:01.069Z,2.84
2017-05-11T17:10:29.423Z,2.92
2017-05-11T17:12:57.784Z,2.90
2017-05-11T17:15:26.147Z,2.60
2017-05-11T17:17:54.512Z,2.90
2017-05-11T17:20:22.877Z,2.82
2017-05-11T17:22:51.462Z,3.48
2017-05-11T17:25:19.829Z,2.92
2017-05-11T17:27:48.193Z,2.85
2017-05-11T17:30:17.510Z,3.35
2017-05-11T17:32:46.621Z,3.33
2017-05-11T17:35:14.989Z,3.33
2017-05-11T17:37:43.406Z,3.28
2017-05-11T17:40:11.768Z,3.23
2017-05-11T17:42:40.128Z,3.22
2017-05-11T17:45:09.241Z,3.68
2017-05-11T17:47:38.341Z,2.65
2017-05-11T17:50:06.704Z,3.05
2017-05-11T17:52:35.789Z,3.07
2017-05-11T17:55:04.157Z,2.73
2017-05-11T17:57:32.523Z,2.82
2017-05-11T18:00:00.884Z,2.82
2017-05-11T18:02:29.253Z,2.98
2017-05-11T18:04:57.622Z,3.20
2017-05-11T18:07:25.988Z,3.58
2017-05-11T18:09:54.349Z,3.17
2017-05-11T18:12:22.709Z,3.20
2017-05-11T18:14:51.069Z,3.23
2017-05-11T18:17:20.401Z,2.78
2017-05-11T18:19:49.500Z,2.93
2017-05-11T18:22:17.953Z,3.22
2017-05-11T18:24:46.308Z,3.15
2017-05-11T18:27:15.736Z,3.08
2017-05-11T18:29:44.837Z,2.88
2017-05-11T18:32:13.206Z,2.95
2017-05-11T18:34:41.569Z,2.72
2017-05-11T18:37:09.933Z,2.73
2017-05-11T18:39:38.295Z,2.45
2017-05-11T18:42:06.657Z,2.45
2017-05-11T18:44:35.760Z,2.40
2017-05-11T18:47:04.904Z,2.30
2017-05-11T18:49:33.265Z,2.40
2017-05-11T18:52:01.633Z,2.13
2017-05-11T18:54:30.909Z,2.37
2017-05-11T18:57:03.711Z,2.28
2017-05-11T18:59:32.072Z,1.88
2017-05-11T19:02:00.435Z,2.12
2017-05-11T19:04:28.792Z,1.90
2017-05-11T19:06:57.905Z,1.88
2017-05-11T19:09:26.264Z,2.07
2017-05-11T19:11:54.620Z,1.60
2017-05-11T19:14:23.716Z,1.95
2017-05-11T19:16:52.108Z,1.75
2017-05-11T19:19:20.460Z,2.05
2017-05-11T19:21:49.145Z,1.62
2017-05-11T19:24:17.533Z,1.90
2017-05-11T19:26:46.629Z,1.70
2017-05-11T19:29:15.034Z,2.05
2017-05-11T19:31:43.391Z,2.22
2017-05-11T19:34:12.169Z,1.88
2017-05-11T19:36:41.270Z,1.77
2017-05-11T19:39:10.365Z,1.80
2017-05-11T19:41:38.734Z,1.85
2017-05-11T19:44:07.092Z,1.83
2017-05-11T19:46:36.193Z,2.15
2017-05-11T19:49:05.300Z,2.08
2017-05-11T19:51:33.653Z,2.20
2017-05-11T19:54:02.008Z,1.90
2017-05-11T19:56:30.369Z,1.98
2017-05-11T19:58:58.724Z,1.93
2017-05-11T20:01:27.821Z,1.90
2017-05-11T20:03:56.177Z,1.92
2017-05-11T20:06:24.530Z,2.02
2017-05-11T20:08:54.073Z,2.12
2017-05-11T20:11:22.433Z,1.90
2017-05-11T20:13:50.792Z,2.30
2017-05-11T20:16:19.149Z,1.95
2017-05-11T20:18:48.254Z,2.00
2017-05-11T20:21:16.740Z,2.30
2017-05-11T20:23:45.725Z,2.10
2017-05-11T20:26:14.432Z,2.32
2017-05-11T20:28:42.789Z,2.35
2017-05-11T20:31:11.889Z,2.37
2017-05-11T20:33:40.285Z,2.52
2017-05-11T20:36:08.644Z,2.28
2017-05-11T20:38:37.528Z,2.27
2017-05-11T20:41:05.889Z,2.33
2017-05-11T20:43:34.246Z,2.18
2017-05-11T20:46:02.600Z,2.25
2017-05-11T20:48:30.954Z,2.42
2017-05-11T20:50:59.534Z,2.75
2017-05-11T20:53:28.629Z,2.32
2017-05-11T20:55:56.989Z,2.35
2017-05-11T20:58:25.345Z,2.27
2017-05-11T21:00:54.441Z,2.07
2017-05-11T21:03:22.799Z,2.20
2017-05-11T21:05:51.153Z,2.35
2017-05-11T21:08:20.565Z,2.57
2017-05-11T21:10:48.921Z,2.40
2017-05-11T21:13:17.285Z,2.30
2017-05-11T21:15:46.384Z,2.45
2017-05-11T21:18:15.480Z,2.30
2017-05-11T21:20:43.876Z,2.30
2017-05-11T21:23:12.234Z,2.32
2017-05-11T21:25:41.998Z,2.45
2017-05-11T21:28:10.356Z,2.47
2017-05-11T21:30:38.712Z,2.45
2017-05-11T21:33:07.069Z,2.68
2017-05-11T21:35:35.426Z,2.38
2017-05-11T21:38:04.569Z,2.97
2017-05-11T21:40:32.932Z,2.82
2017-05-11T21:43:01.291Z,3.15
2017-05-11T21:45:29.644Z,2.90
2017-05-11T21:47:58.741Z,2.87
2017-05-11T21:50:27.101Z,3.17
2017-05-11T21:52:55.457Z,3.07
2017-05-11T21:55:24.553Z,3.25
2017-05-11T21:57:52.908Z,2.78
2017-05-11T22:00:21.261Z,3.50
2017-05-11T22:02:49.618Z,3.08
2017-05-11T22:05:17.975Z,3.58
2017-05-11T22:07:47.305Z,3.15
2017-05-11T22:10:16.404Z,2.85
2017-05-11T22:12:45.549Z,3.28
2017-05-11T22:15:14.381Z,2.75
2017-05-11T22:17:42.738Z,2.67
2017-05-11T22:20:11.837Z,2.75
2017-05-11T22:22:40.312Z,2.65
2017-05-11T22:25:08.819Z,2.95
2017-05-11T22:27:37.178Z,2.70
2017-05-11T22:30:05.532Z,2.98
2017-05-11T22:32:33.889Z,2.33
2017-05-11T22:35:02.241Z,2.77
2017-05-11T22:37:30.592Z,2.98
2017-05-11T22:39:58.945Z,2.65
2017-05-11T22:42:28.044Z,3.10
2017-05-11T22:44:56.401Z,3.20
2017-05-11T22:47:24.753Z,3.40
2017-05-11T22:49:53.105Z,2.68
2017-05-11T22:52:21.458Z,2.83
2017-05-11T22:54:50.555Z,2.92
2017-05-11T22:57:18.950Z,2.72
2017-05-11T22:59:47.309Z,2.50
2017-05-11T23:02:15.660Z,2.72
2017-05-11T23:04:44.160Z,3.07
2017-05-11T23:07:12.517Z,3.40
2017-05-11T23:09:40.869Z,3.17
2017-05-11T23:12:09.227Z,3.00
2017-05-11T23:14:37.580Z,3.03
2017-05-11T23:17:06.677Z,3.45
2017-05-11T23:19:35.034Z,3.12
2017-05-11T23:22:03.393Z,3.33
2017-05-11T23:24:32.881Z,4.02
2017-05-11T23:27:01.237Z,4.32
2017-05-11T23:29:29.588Z,4.60
2017-05-11T23:31:57.940Z,3.82
2017-05-11T23:34:26.293Z,3.65
2017-05-11T23:36:54.648Z,3.67
2017-05-11T23:39:23.000Z,4.00
2017-05-11T23:41:51.363Z,3.72
2017-05-11T23:44:20.029Z,3.48
2017-05-11T23:46:49.121Z,4.03
2017-05-11T23:49:17.489Z,3.93
2017-05-11T23:51:45.852Z,4.38
2017-05-11T23:54:14.208Z,3.92
2017-05-11T23:56:42.565Z,4.40
2017-05-11T23:59:10.915Z,3.83
